sensor_id;sensor_type;location;lat;lon;timestamp;pressure;altitude;pressure_sealevel;temperature;humidity
8069;BME280;4077;43.702;24.896;2022-12-24T00:00:00;99241.16;;;0.14;100.00
8069;BME280;4077;43.702;24.896;2022-12-24T00:02:25;99232.44;;;0.09;100.00
8069;BME280;4077;43.702;24.896;2022-12-24T00:04:51;99230.34;;;0.00;100.00
8069;BME280;4077;43.702;24.896;2022-12-24T00:07:16;99236.28;;;0.01;100.00
8069;BME280;4077;43.702;24.896;2022-12-24T00:09:42;99235.63;;;0.05;100.00
8069;BME280;4077;43.702;24.896;2022-12-24T00:12:07;99238.53;;;0.12;100.00
8069;BME280;4077;43.702;24.896;2022-12-24T00:14:32;99237.59;;;0.10;100.00
8069;BME280;4077;43.702;24.896;2022-12-24T00:16:58;99222.13;;;0.06;100.00
8069;BME280;4077;43.702;24.896;2022-12-24T00:19:23;99236.00;;;0.12;100.00
8069;BME280;4077;43.702;24.896;2022-12-24T00:21:49;99232.59;;;0.12;100.00
8069;BME280;4077;43.702;24.896;2022-12-24T00:24:14;99235.38;;;0.16;100.00
8069;BME280;4077;43.702;24.896;2022-12-24T00:26:40;99227.00;;;0.19;100.00
8069;BME280;4077;43.702;24.896;2022-12-24T00:29:05;99228.84;;;0.21;100.00
8069;BME280;4077;43.702;24.896;2022-12-24T00:31:31;99222.28;;;0.26;100.00
8069;BME280;4077;43.702;24.896;2022-12-24T00:33:56;99229.03;;;0.26;100.00
8069;BME280;4077;43.702;24.896;2022-12-24T00:36:22;99232.81;;;0.34;100.00
8069;BME280;4077;43.702;24.896;2022-12-24T00:38:47;99224.56;;;0.38;100.00
8069;BME280;4077;43.702;24.896;2022-12-24T00:41:14;99208.81;;;0.45;100.00
8069;BME280;4077;43.702;24.896;2022-12-24T00:44:00;99225.72;;;0.63;100.00
8069;BME280;4077;43.702;24.896;2022-12-24T00:46:27;99229.41;;;0.51;100.00
8069;BME280;4077;43.702;24.896;2022-12-24T00:48:54;99228.53;;;0.51;100.00
8069;BME280;4077;43.702;24.896;2022-12-24T00:51:20;99229.41;;;0.51;100.00
8069;BME280;4077;43.702;24.896;2022-12-24T00:53:46;99233.03;;;0.57;100.00
8069;BME280;4077;43.702;24.896;2022-12-24T00:56:12;99236.38;;;0.56;100.00
8069;BME280;4077;43.702;24.896;2022-12-24T00:58:37;99227.91;;;0.55;100.00
8069;BME280;4077;43.702;24.896;2022-12-24T01:01:03;99244.25;;;0.62;100.00
8069;BME280;4077;43.702;24.896;2022-12-24T01:03:29;99228.59;;;0.52;100.00
8069;BME280;4077;43.702;24.896;2022-12-24T01:06:11;99232.75;;;0.50;100.00
8069;BME280;4077;43.702;24.896;2022-12-24T01:08:37;99228.84;;;0.39;100.00
8069;BME280;4077;43.702;24.896;2022-12-24T01:11:04;99225.44;;;0.39;100.00
8069;BME280;4077;43.702;24.896;2022-12-24T01:13:30;99228.84;;;0.39;100.00
8069;BME280;4077;43.702;24.896;2022-12-24T01:15:56;99221.28;;;0.41;100.00
8069;BME280;4077;43.702;24.896;2022-12-24T01:18:22;99218.09;;;0.45;100.00
8069;BME280;4077;43.702;24.896;2022-12-24T01:21:00;99218.38;;;0.51;100.00
8069;BME280;4077;43.702;24.896;2022-12-24T01:23:26;99219.91;;;0.47;100.00
8069;BME280;4077;43.702;24.896;2022-12-24T01:25:52;99223.91;;;0.42;100.00
8069;BME280;4077;43.702;24.896;2022-12-24T01:28:18;99219.91;;;0.47;100.00
8069;BME280;4077;43.702;24.896;2022-12-24T01:30:44;99227.50;;;0.47;100.00
8069;BME280;4077;43.702;24.896;2022-12-24T01:33:10;99232.59;;;0.47;100.00
8069;BME280;4077;43.702;24.896;2022-12-24T01:35:40;99232.88;;;0.53;100.00
8069;BME280;4077;43.702;24.896;2022-12-24T01:38:06;99235.94;;;0.46;100.00
8069;BME280;4077;43.702;24.896;2022-12-24T01:40:31;99237.41;;;0.41;100.00
8069;BME280;4077;43.702;24.896;2022-12-24T01:43:17;99236.38;;;0.38;100.00
8069;BME280;4077;43.702;24.896;2022-12-24T01:45:52;99234.06;;;0.42;100.00
8069;BME280;4077;43.702;24.896;2022-12-24T01:48:52;99244.88;;;0.38;100.00
8069;BME280;4077;43.702;24.896;2022-12-24T01:54:22;99245.06;;;0.25;100.00
8069;BME280;4077;43.702;24.896;2022-12-24T01:56:55;99243.03;;;0.18;100.00
8069;BME280;4077;43.702;24.896;2022-12-24T01:59:22;99235.13;;;0.12;100.00
8069;BME280;4077;43.702;24.896;2022-12-24T02:01:49;99243.78;;;0.15;100.00
8069;BME280;4077;43.702;24.896;2022-12-24T02:04:36;99226.81;;;0.14;100.00
8069;BME280;4077;43.702;24.896;2022-12-24T02:07:05;99234.19;;;0.10;100.00
8069;BME280;4077;43.702;24.896;2022-12-24T02:09:32;99241.59;;;0.23;100.00
8069;BME280;4077;43.702;24.896;2022-12-24T02:11:59;99235.66;;;0.22;100.00
8069;BME280;4077;43.702;24.896;2022-12-24T02:14:26;99236.69;;;0.44;100.00
8069;BME280;4077;43.702;24.896;2022-12-24T02:16:56;99232.34;;;0.41;100.00
8069;BME280;4077;43.702;24.896;2022-12-24T02:30:01;99217.09;;;0.41;100.00
8069;BME280;4077;43.702;24.896;2022-12-24T02:35:18;99208.06;;;0.48;100.00
8069;BME280;4077;43.702;24.896;2022-12-24T02:38:18;99209.09;;;0.51;100.00
8069;BME280;4077;43.702;24.896;2022-12-24T02:41:15;99214.31;;;0.54;100.00
8069;BME280;4077;43.702;24.896;2022-12-24T02:43:44;99212.50;;;0.52;100.00
8069;BME280;4077;43.702;24.896;2022-12-24T02:46:17;99212.78;;;0.58;100.00
8069;BME280;4077;43.702;24.896;2022-12-24T02:48:46;99211.56;;;0.50;100.00
8069;BME280;4077;43.702;24.896;2022-12-24T02:51:13;99210.13;;;0.55;100.00
8069;BME280;4077;43.702;24.896;2022-12-24T02:53:39;99207.59;;;0.55;100.00
8069;BME280;4077;43.702;24.896;2022-12-24T03:01:41;99203.72;;;0.63;100.00
8069;BME280;4077;43.702;24.896;2022-12-24T03:04:28;99204.88;;;0.70;100.00
8069;BME280;4077;43.702;24.896;2022-12-24T03:07:06;99209.66;;;0.64;100.00
8069;BME280;4077;43.702;24.896;2022-12-24T03:09:55;99214.50;;;0.77;100.00
8069;BME280;4077;43.702;24.896;2022-12-24T03:12:37;99223.13;;;0.80;100.00
8069;BME280;4077;43.702;24.896;2022-12-24T03:15:07;99221.56;;;0.82;100.00
8069;BME280;4077;43.702;24.896;2022-12-24T03:17:36;99222.41;;;0.83;100.00
8069;BME280;4077;43.702;24.896;2022-12-24T03:20:03;99218.09;;;0.82;100.00
8069;BME280;4077;43.702;24.896;2022-12-24T03:22:31;99218.91;;;0.81;100.00
8069;BME280;4077;43.702;24.896;2022-12-24T03:24:59;99219.38;;;0.72;100.00
8069;BME280;4077;43.702;24.896;2022-12-24T03:27:26;99204.72;;;0.67;100.00
8069;BME280;4077;43.702;24.896;2022-12-24T03:29:53;99209.66;;;0.64;100.00
8069;BME280;4077;43.702;24.896;2022-12-24T03:32:24;99220.25;;;0.73;100.00
8069;BME280;4077;43.702;24.896;2022-12-24T03:34:51;99211.41;;;0.65;100.00
8069;BME280;4077;43.702;24.896;2022-12-24T03:37:18;99216.47;;;0.65;100.00
8069;BME280;4077;43.702;24.896;2022-12-24T03:39:44;99214.59;;;0.61;100.00
8069;BME280;4077;43.702;24.896;2022-12-24T03:42:09;99217.06;;;0.59;100.00
8069;BME280;4077;43.702;24.896;2022-12-24T03:44:34;99211.00;;;0.56;100.00
8069;BME280;4077;43.702;24.896;2022-12-24T03:47:00;99204.88;;;0.52;100.00
8069;BME280;4077;43.702;24.896;2022-12-24T03:49:25;99197.91;;;0.48;100.00
8069;BME280;4077;43.702;24.896;2022-12-24T03:51:51;99197.06;;;0.47;100.00
8069;BME280;4077;43.702;24.896;2022-12-24T03:54:16;99198.53;;;0.42;100.00
8069;BME280;4077;43.702;24.896;2022-12-24T03:56:42;99196.91;;;0.44;100.00
8069;BME280;4077;43.702;24.896;2022-12-24T03:59:07;99194.25;;;0.41;100.00
8069;BME280;4077;43.702;24.896;2022-12-24T04:01:32;99211.50;;;0.48;100.00
8069;BME280;4077;43.702;24.896;2022-12-24T04:03:58;99205.63;;;0.49;100.00
8069;BME280;4077;43.702;24.896;2022-12-24T04:06:23;99214.81;;;0.47;100.00
8069;BME280;4077;43.702;24.896;2022-12-24T04:08:49;99212.44;;;0.50;100.00
8069;BME280;4077;43.702;24.896;2022-12-24T04:11:16;99220.63;;;0.63;100.00
8069;BME280;4077;43.702;24.896;2022-12-24T04:13:42;99215.03;;;0.70;100.00
8069;BME280;4077;43.702;24.896;2022-12-24T04:16:11;99213.03;;;0.82;100.00
8069;BME280;4077;43.702;24.896;2022-12-24T04:18:37;99221.34;;;0.78;100.00
8069;BME280;4077;43.702;24.896;2022-12-24T04:21:04;99220.66;;;0.82;100.00
8069;BME280;4077;43.702;24.896;2022-12-24T04:23:31;99234.03;;;0.78;100.00
8069;BME280;4077;43.702;24.896;2022-12-24T04:25:59;99240.72;;;0.76;100.00
8069;BME280;4077;43.702;24.896;2022-12-24T04:28:24;99241.06;;;0.66;100.00
8069;BME280;4077;43.702;24.896;2022-12-24T04:30:49;99247.69;;;0.62;100.00
8069;BME280;4077;43.702;24.896;2022-12-24T04:33:15;99258.72;;;0.63;100.00
8069;BME280;4077;43.702;24.896;2022-12-24T04:35:41;99259.38;;;0.76;100.00
8069;BME280;4077;43.702;24.896;2022-12-24T04:38:09;99269.38;;;0.73;100.00
8069;BME280;4077;43.702;24.896;2022-12-24T04:40:35;99263.19;;;0.68;100.00
8069;BME280;4077;43.702;24.896;2022-12-24T04:43:00;99277.16;;;0.59;100.00
8069;BME280;4077;43.702;24.896;2022-12-24T04:45:26;99265.69;;;0.49;100.00
8069;BME280;4077;43.702;24.896;2022-12-24T04:47:51;99265.97;;;0.37;100.00
8069;BME280;4077;43.702;24.896;2022-12-24T04:50:17;99262.84;;;0.25;100.00
8069;BME280;4077;43.702;24.896;2022-12-24T04:52:42;99259.44;;;0.24;100.00
8069;BME280;4077;43.702;24.896;2022-12-24T04:55:08;99272.50;;;0.32;100.00
8069;BME280;4077;43.702;24.896;2022-12-24T04:57:33;99259.00;;;0.33;100.00
8069;BME280;4077;43.702;24.896;2022-12-24T05:00:00;99260.72;;;0.34;100.00
8069;BME280;4077;43.702;24.896;2022-12-24T05:02:26;99253.34;;;0.21;100.00
8069;BME280;4077;43.702;24.896;2022-12-24T05:04:52;99244.94;;;0.22;100.00
8069;BME280;4077;43.702;24.896;2022-12-24T05:07:17;99243.72;;;0.14;100.00
8069;BME280;4077;43.702;24.896;2022-12-24T05:09:42;99246.16;;;0.12;100.00
8069;BME280;4077;43.702;24.896;2022-12-24T05:12:08;99239.56;;;0.16;100.00
8069;BME280;4077;43.702;24.896;2022-12-24T05:14:33;99231.94;;;0.16;100.00
8069;BME280;4077;43.702;24.896;2022-12-24T05:16:59;99244.94;;;0.22;100.00
8069;BME280;4077;43.702;24.896;2022-12-24T05:19:24;99233.69;;;0.17;100.00
8069;BME280;4077;43.702;24.896;2022-12-24T05:21:49;99234.78;;;0.22;100.00
8069;BME280;4077;43.702;24.896;2022-12-24T05:24:35;99234.91;;;0.25;100.00
8069;BME280;4077;43.702;24.896;2022-12-24T05:27:20;99235.78;;;0.25;100.00
8069;BME280;4077;43.702;24.896;2022-12-24T05:29:45;99231.94;;;0.34;100.00
8069;BME280;4077;43.702;24.896;2022-12-24T05:32:11;99230.78;;;0.27;100.00
8069;BME280;4077;43.702;24.896;2022-12-24T05:34:36;99218.53;;;0.18;100.00
8069;BME280;4077;43.702;24.896;2022-12-24T05:37:01;99219.47;;;0.20;100.00
8069;BME280;4077;43.702;24.896;2022-12-24T05:39:27;99213.53;;;0.20;100.00
8069;BME280;4077;43.702;24.896;2022-12-24T05:41:52;99222.22;;;0.25;100.00
8069;BME280;4077;43.702;24.896;2022-12-24T05:44:18;99230.50;;;0.21;100.00
8069;BME280;4077;43.702;24.896;2022-12-24T05:46:44;99228.97;;;0.24;100.00
8069;BME280;4077;43.702;24.896;2022-12-24T05:49:10;99211.78;;;0.19;100.00
8069;BME280;4077;43.702;24.896;2022-12-24T05:51:36;99212.75;;;0.21;100.00
8069;BME280;4077;43.702;24.896;2022-12-24T05:54:01;99215.84;;;0.33;100.00
8069;BME280;4077;43.702;24.896;2022-12-24T05:56:27;99201.72;;;0.38;100.00
8069;BME280;4077;43.702;24.896;2022-12-24T05:58:53;99222.44;;;0.65;100.00
8069;BME280;4077;43.702;24.896;2022-12-24T06:01:21;99216.91;;;0.74;100.00
8069;BME280;4077;43.702;24.896;2022-12-24T06:03:47;99217.34;;;0.83;100.00
8069;BME280;4077;43.702;24.896;2022-12-24T06:06:20;99217.59;;;1.08;100.00
8069;BME280;4077;43.702;24.896;2022-12-24T06:08:47;99217.75;;;1.12;100.00
8069;BME280;4077;43.702;24.896;2022-12-24T06:11:15;99218.97;;;1.20;100.00
8069;BME280;4077;43.702;24.896;2022-12-24T06:13:41;99217.94;;;1.16;100.00
8069;BME280;4077;43.702;24.896;2022-12-24T06:16:09;99218.97;;;1.20;100.00
8069;BME280;4077;43.702;24.896;2022-12-24T06:18:35;99227.47;;;1.20;100.00
8069;BME280;4077;43.702;24.896;2022-12-24T06:21:02;99230.06;;;1.41;100.00
8069;BME280;4077;43.702;24.896;2022-12-24T06:23:30;99221.41;;;1.57;100.00
8069;BME280;4077;43.702;24.896;2022-12-24T06:25:57;99230.63;;;1.74;100.00
8069;BME280;4077;43.702;24.896;2022-12-24T06:28:23;99234.06;;;1.75;100.00
8069;BME280;4077;43.702;24.896;2022-12-24T06:30:49;99237.84;;;1.84;100.00
8069;BME280;4077;43.702;24.896;2022-12-24T06:33:15;99233.75;;;1.88;100.00
8069;BME280;4077;43.702;24.896;2022-12-24T06:35:43;99229.59;;;1.90;100.00
8069;BME280;4077;43.702;24.896;2022-12-24T06:38:09;99243.19;;;1.90;100.00
8069;BME280;4077;43.702;24.896;2022-12-24T06:40:37;99242.94;;;2.05;100.00
8069;BME280;4077;43.702;24.896;2022-12-24T06:43:02;99237.84;;;2.05;100.00
8069;BME280;4077;43.702;24.896;2022-12-24T06:45:27;99232.94;;;2.10;100.00
8069;BME280;4077;43.702;24.896;2022-12-24T06:47:53;99234.88;;;2.15;100.00
8069;BME280;4077;43.702;24.896;2022-12-24T06:50:18;99234.88;;;2.15;100.00
8069;BME280;4077;43.702;24.896;2022-12-24T06:52:44;99234.19;;;2.19;100.00
8069;BME280;4077;43.702;24.896;2022-12-24T06:55:09;99236.06;;;2.24;100.00
8069;BME280;4077;43.702;24.896;2022-12-24T06:57:35;99240.59;;;2.31;100.00
8069;BME280;4077;43.702;24.896;2022-12-24T07:00:00;99228.91;;;2.36;100.00
8069;BME280;4077;43.702;24.896;2022-12-24T07:02:25;99234.94;;;2.38;100.00
8069;BME280;4077;43.702;24.896;2022-12-24T07:04:51;99228.53;;;2.47;100.00
8069;BME280;4077;43.702;24.896;2022-12-24T07:07:17;99231.63;;;2.61;100.00
8069;BME280;4077;43.702;24.896;2022-12-24T07:09:42;99229.41;;;2.70;100.00
8069;BME280;4077;43.702;24.896;2022-12-24T07:12:08;99237.63;;;2.86;100.00
8069;BME280;4077;43.702;24.896;2022-12-24T07:14:33;99244.94;;;2.99;100.00
8069;BME280;4077;43.702;24.896;2022-12-24T07:16:59;99235.41;;;3.17;100.00
8069;BME280;4077;43.702;24.896;2022-12-24T07:19:24;99234.38;;;3.36;100.00
8069;BME280;4077;43.702;24.896;2022-12-24T07:21:50;99234.56;;;3.41;100.00
8069;BME280;4077;43.702;24.896;2022-12-24T07:24:15;99239.97;;;3.50;100.00
8069;BME280;4077;43.702;24.896;2022-12-24T07:26:41;99248.44;;;3.49;100.00
8069;BME280;4077;43.702;24.896;2022-12-24T07:29:06;99240.88;;;3.50;100.00
8069;BME280;4077;43.702;24.896;2022-12-24T07:31:32;99242.81;;;3.58;100.00
8069;BME280;4077;43.702;24.896;2022-12-24T07:33:58;99257.41;;;3.62;100.00
8069;BME280;4077;43.702;24.896;2022-12-24T07:36:24;99235.22;;;3.59;100.00
8069;BME280;4077;43.702;24.896;2022-12-24T07:38:50;99263.00;;;3.75;100.00
8069;BME280;4077;43.702;24.896;2022-12-24T07:41:16;99261.25;;;3.74;100.00
8069;BME280;4077;43.702;24.896;2022-12-24T07:43:42;99264.06;;;3.82;100.00
8069;BME280;4077;43.702;24.896;2022-12-24T07:46:07;99262.72;;;3.92;100.00
8069;BME280;4077;43.702;24.896;2022-12-24T07:48:33;99272.63;;;4.08;100.00
8069;BME280;4077;43.702;24.896;2022-12-24T07:50:59;99272.47;;;4.29;100.00
8069;BME280;4077;43.702;24.896;2022-12-24T07:53:26;99269.56;;;4.45;100.00
8069;BME280;4077;43.702;24.896;2022-12-24T07:55:51;99276.88;;;4.60;100.00
8069;BME280;4077;43.702;24.896;2022-12-24T07:58:17;99268.03;;;4.77;100.00
8069;BME280;4077;43.702;24.896;2022-12-24T08:00:43;99275.19;;;4.87;100.00
8069;BME280;4077;43.702;24.896;2022-12-24T08:03:26;99281.88;;;5.12;100.00
8069;BME280;4077;43.702;24.896;2022-12-24T08:05:52;99291.25;;;5.12;100.00
8069;BME280;4077;43.702;24.896;2022-12-24T08:08:18;99286.59;;;5.27;100.00
8069;BME280;4077;43.702;24.896;2022-12-24T08:10:44;99282.69;;;5.40;100.00
8069;BME280;4077;43.702;24.896;2022-12-24T08:13:10;99283.56;;;5.40;100.00
8069;BME280;4077;43.702;24.896;2022-12-24T08:15:36;99281.16;;;5.46;100.00
8069;BME280;4077;43.702;24.896;2022-12-24T08:18:01;99288.38;;;5.60;100.00
8069;BME280;4077;43.702;24.896;2022-12-24T08:20:27;99296.28;;;5.69;100.00
8069;BME280;4077;43.702;24.896;2022-12-24T08:22:52;99294.97;;;5.83;100.00
8069;BME280;4077;43.702;24.896;2022-12-24T08:25:18;99287.75;;;5.98;100.00
8069;BME280;4077;43.702;24.896;2022-12-24T08:27:45;99294.88;;;6.10;100.00
8069;BME280;4077;43.702;24.896;2022-12-24T08:30:11;99295.50;;;6.33;100.00
8069;BME280;4077;43.702;24.896;2022-12-24T08:32:37;99298.38;;;6.45;100.00
8069;BME280;4077;43.702;24.896;2022-12-24T08:35:03;99300.47;;;6.62;100.00
8069;BME280;4077;43.702;24.896;2022-12-24T08:37:28;99301.34;;;6.64;100.00
8069;BME280;4077;43.702;24.896;2022-12-24T08:39:53;99290.41;;;6.71;100.00
8069;BME280;4077;43.702;24.896;2022-12-24T08:42:19;99311.00;;;6.74;100.00
8069;BME280;4077;43.702;24.896;2022-12-24T08:44:44;99290.34;;;6.68;100.00
8069;BME280;4077;43.702;24.896;2022-12-24T08:47:10;99300.63;;;6.69;100.00
8069;BME280;4077;43.702;24.896;2022-12-24T08:49:35;99295.47;;;6.68;100.00
8069;BME280;4077;43.702;24.896;2022-12-24T08:52:01;99308.59;;;6.80;100.00
8069;BME280;4077;43.702;24.896;2022-12-24T08:54:26;99300.81;;;6.77;100.00
8069;BME280;4077;43.702;24.896;2022-12-24T08:56:52;99299.94;;;6.76;100.00
8069;BME280;4077;43.702;24.896;2022-12-24T08:59:17;99311.06;;;6.77;100.00
8069;BME280;4077;43.702;24.896;2022-12-24T09:01:43;99301.00;;;6.86;100.00
8069;BME280;4077;43.702;24.896;2022-12-24T09:04:08;99301.38;;;7.01;100.00
8069;BME280;4077;43.702;24.896;2022-12-24T09:06:34;99301.69;;;7.15;100.00
8069;BME280;4077;43.702;24.896;2022-12-24T09:09:01;99305.19;;;7.19;100.00
8069;BME280;4077;43.702;24.896;2022-12-24T09:11:28;99301.06;;;7.27;100.00
8069;BME280;4077;43.702;24.896;2022-12-24T09:13:54;99300.88;;;7.18;100.00
8069;BME280;4077;43.702;24.896;2022-12-24T09:16:20;99300.84;;;7.16;100.00
8069;BME280;4077;43.702;24.896;2022-12-24T09:18:45;99302.63;;;7.20;100.00
8069;BME280;4077;43.702;24.896;2022-12-24T09:21:13;99308.13;;;7.35;100.00
8069;BME280;4077;43.702;24.896;2022-12-24T09:23:42;99303.00;;;7.35;100.00
8069;BME280;4077;43.702;24.896;2022-12-24T09:26:11;99312.59;;;7.44;100.00
8069;BME280;4077;43.702;24.896;2022-12-24T09:28:37;99317.84;;;7.50;100.00
8069;BME280;4077;43.702;24.896;2022-12-24T09:31:04;99316.28;;;7.58;100.00
8069;BME280;4077;43.702;24.896;2022-12-24T09:33:32;99327.44;;;7.59;100.00
8069;BME280;4077;43.702;24.896;2022-12-24T09:35:58;99327.66;;;7.29;100.00
8069;BME280;4077;43.702;24.896;2022-12-24T09:38:24;99333.97;;;7.05;100.00
8069;BME280;4077;43.702;24.896;2022-12-24T09:40:50;99338.03;;;6.60;100.00
8069;BME280;4077;43.702;24.896;2022-12-24T09:43:19;99332.28;;;6.35;100.00
8069;BME280;4077;43.702;24.896;2022-12-24T09:48:42;99327.38;;;5.81;100.00
8069;BME280;4077;43.702;24.896;2022-12-24T09:51:14;99334.88;;;5.75;100.00
8069;BME280;4077;43.702;24.896;2022-12-24T09:56:17;99337.28;;;5.69;100.00
8069;BME280;4077;43.702;24.896;2022-12-24T09:58:50;99339.19;;;5.76;100.00
8069;BME280;4077;43.702;24.896;2022-12-24T10:01:18;99340.16;;;5.80;100.00
8069;BME280;4077;43.702;24.896;2022-12-24T10:03:45;99335.41;;;5.92;100.00
8069;BME280;4077;43.702;24.896;2022-12-24T10:06:20;99321.06;;;5.98;100.00
8069;BME280;4077;43.702;24.896;2022-12-24T10:09:15;99329.88;;;6.10;100.00
8069;BME280;4077;43.702;24.896;2022-12-24T10:25:45;99311.97;;;6.44;100.00
8069;BME280;4077;43.702;24.896;2022-12-24T10:28:16;99301.88;;;6.50;100.00
8069;BME280;4077;43.702;24.896;2022-12-24T10:30:46;99300.47;;;6.62;100.00
8069;BME280;4077;43.702;24.896;2022-12-24T10:33:19;99295.47;;;6.68;100.00
8069;BME280;4077;43.702;24.896;2022-12-24T10:35:51;99297.41;;;6.78;100.00
8069;BME280;4077;43.702;24.896;2022-12-24T10:38:18;99288.84;;;6.77;100.00
8069;BME280;4077;43.702;24.896;2022-12-24T10:40:46;99292.00;;;7.03;100.00
8069;BME280;4077;43.702;24.896;2022-12-24T10:45:41;99271.09;;;7.26;100.00
8069;BME280;4077;43.702;24.896;2022-12-24T10:48:19;99277.47;;;7.43;100.00
8069;BME280;4077;43.702;24.896;2022-12-24T10:51:04;99267.97;;;7.39;100.00
8069;BME280;4077;43.702;24.896;2022-12-24T10:56:08;99268.50;;;7.23;100.00
8069;BME280;4077;43.702;24.896;2022-12-24T10:58:34;99264.25;;;7.25;100.00
8069;BME280;4077;43.702;24.896;2022-12-24T11:01:01;99249.91;;;7.34;100.00
8069;BME280;4077;43.702;24.896;2022-12-24T11:03:32;99248.50;;;7.49;100.00
8069;BME280;4077;43.702;24.896;2022-12-24T11:08:34;99242.78;;;7.63;100.00
8069;BME280;4077;43.702;24.896;2022-12-24T11:11:03;99239.75;;;7.86;100.00
8069;BME280;4077;43.702;24.896;2022-12-24T11:13:35;99255.53;;;8.04;100.00
8069;BME280;4077;43.702;24.896;2022-12-24T11:16:09;99255.78;;;8.19;100.00
8069;BME280;4077;43.702;24.896;2022-12-24T11:18:45;99246.38;;;8.21;100.00
8069;BME280;4077;43.702;24.896;2022-12-24T11:21:21;99243.91;;;8.28;100.00
8069;BME280;4077;43.702;24.896;2022-12-24T11:23:55;99248.44;;;8.39;100.00
8069;BME280;4077;43.702;24.896;2022-12-24T11:26:26;99232.00;;;8.33;100.00
8069;BME280;4077;43.702;24.896;2022-12-24T11:31:49;99247.78;;;8.53;100.00
8069;BME280;4077;43.702;24.896;2022-12-24T11:36:49;99262.38;;;8.55;100.00
8069;BME280;4077;43.702;24.896;2022-12-24T11:39:23;99263.28;;;8.57;100.00
8069;BME280;4077;43.702;24.896;2022-12-24T11:41:50;99264.81;;;8.46;100.00
8069;BME280;4077;43.702;24.896;2022-12-24T11:44:26;99281.03;;;8.42;100.00
8069;BME280;4077;43.702;24.896;2022-12-24T11:46:53;99288.44;;;8.23;100.00
8069;BME280;4077;43.702;24.896;2022-12-24T11:49:25;99301.16;;;8.17;100.00
8069;BME280;4077;43.702;24.896;2022-12-24T11:55:03;99285.66;;;8.13;100.00
8069;BME280;4077;43.702;24.896;2022-12-24T12:00:38;99314.75;;;8.10;100.00
8069;BME280;4077;43.702;24.896;2022-12-24T12:03:24;99310.34;;;8.05;100.00
8069;BME280;4077;43.702;24.896;2022-12-24T12:05:51;99314.56;;;8.01;100.00
8069;BME280;4077;43.702;24.896;2022-12-24T12:08:19;99318.72;;;7.94;100.00
8069;BME280;4077;43.702;24.896;2022-12-24T12:10:45;99300.41;;;7.76;100.00
8069;BME280;4077;43.702;24.896;2022-12-24T12:13:16;99300.28;;;7.70;100.00
8069;BME280;4077;43.702;24.896;2022-12-24T12:16:00;99290.91;;;7.74;100.00
8069;BME280;4077;43.702;24.896;2022-12-24T12:18:35;99284.97;;;7.76;100.00
8069;BME280;4077;43.702;24.896;2022-12-24T12:21:04;99284.16;;;7.79;100.00
8069;BME280;4077;43.702;24.896;2022-12-24T12:23:32;99276.31;;;7.71;100.00
8069;BME280;4077;43.702;24.896;2022-12-24T12:31:09;99278.97;;;7.76;100.00
8069;BME280;4077;43.702;24.896;2022-12-24T12:36:09;99265.06;;;7.64;100.00
8069;BME280;4077;43.702;24.896;2022-12-24T12:38:37;99266.78;;;7.65;100.00
8069;BME280;4077;43.702;24.896;2022-12-24T12:47:01;99264.59;;;7.42;100.00
8069;BME280;4077;43.702;24.896;2022-12-24T12:55:38;99271.91;;;7.65;100.00
8069;BME280;4077;43.702;24.896;2022-12-24T12:58:27;99275.44;;;7.71;100.00
8069;BME280;4077;43.702;24.896;2022-12-24T13:01:02;99280.47;;;7.64;100.00
8069;BME280;4077;43.702;24.896;2022-12-24T13:12:00;99291.59;;;7.65;100.00
8069;BME280;4077;43.702;24.896;2022-12-24T13:20:24;99286.41;;;7.62;100.00
8069;BME280;4077;43.702;24.896;2022-12-24T13:22:57;99281.19;;;7.59;100.00
8069;BME280;4077;43.702;24.896;2022-12-24T13:25:42;99285.78;;;7.74;100.00
8069;BME280;4077;43.702;24.896;2022-12-24T13:36:05;99296.06;;;8.20;100.00
8069;BME280;4077;43.702;24.896;2022-12-24T13:38:53;99309.06;;;8.30;100.00
8069;BME280;4077;43.702;24.896;2022-12-24T13:49:34;99321.06;;;8.77;100.00
8069;BME280;4077;43.702;24.896;2022-12-24T13:54:46;99315.41;;;9.00;100.00
8069;BME280;4077;43.702;24.896;2022-12-24T13:59:55;99330.81;;;8.97;100.00
8069;BME280;4077;43.702;24.896;2022-12-24T14:02:22;99321.13;;;8.81;100.00
8069;BME280;4077;43.702;24.896;2022-12-24T14:04:49;99320.28;;;8.82;100.00
8069;BME280;4077;43.702;24.896;2022-12-24T14:07:18;99301.59;;;8.95;100.00
8069;BME280;4077;43.702;24.896;2022-12-24T14:09:48;99329.38;;;9.17;100.00
8069;BME280;4077;43.702;24.896;2022-12-24T14:14:54;99329.06;;;8.96;100.00
8069;BME280;4077;43.702;24.896;2022-12-24T14:17:23;99314.38;;;8.89;100.00
8069;BME280;4077;43.702;24.896;2022-12-24T14:20:08;99320.31;;;8.85;100.00
8069;BME280;4077;43.702;24.896;2022-12-24T14:22:37;99323.69;;;8.81;100.00
8069;BME280;4077;43.702;24.896;2022-12-24T14:25:15;99322.88;;;8.83;100.00
8069;BME280;4077;43.702;24.896;2022-12-24T14:27:45;99325.28;;;8.72;100.00
8069;BME280;4077;43.702;24.896;2022-12-24T14:30:16;99333.34;;;8.95;100.00
8069;BME280;4077;43.702;24.896;2022-12-24T14:32:43;99330.47;;;8.75;100.00
8069;BME280;4077;43.702;24.896;2022-12-24T14:37:34;99326.91;;;8.67;100.00
8069;BME280;4077;43.702;24.896;2022-12-24T14:40:00;99332.81;;;8.62;100.00
8069;BME280;4077;43.702;24.896;2022-12-24T14:42:38;99332.88;;;8.65;100.00
8069;BME280;4077;43.702;24.896;2022-12-24T14:53:25;99338.63;;;8.50;100.00
8069;BME280;4077;43.702;24.896;2022-12-24T14:55:52;99332.44;;;8.39;100.00
8069;BME280;4077;43.702;24.896;2022-12-24T15:00:46;99337.56;;;8.37;100.00
8069;BME280;4077;43.702;24.896;2022-12-24T15:03:14;99320.94;;;8.21;100.00
8069;BME280;4077;43.702;24.896;2022-12-24T15:05:40;99337.31;;;8.27;100.00
8069;BME280;4077;43.702;24.896;2022-12-24T15:08:18;99340.03;;;8.34;100.00
8069;BME280;4077;43.702;24.896;2022-12-24T15:10:52;99331.41;;;8.31;100.00
8069;BME280;4077;43.702;24.896;2022-12-24T15:13:34;99329.59;;;8.27;100.00
8069;BME280;4077;43.702;24.896;2022-12-24T15:16:02;99321.06;;;8.28;100.00
8069;BME280;4077;43.702;24.896;2022-12-24T15:18:31;99320.91;;;8.18;100.00
8069;BME280;4077;43.702;24.896;2022-12-24T15:21:01;99313.94;;;8.14;100.00
8069;BME280;4077;43.702;24.896;2022-12-24T15:23:31;99317.41;;;8.16;100.00
8069;BME280;4077;43.702;24.896;2022-12-24T15:26:29;99314.78;;;8.12;100.00
8069;BME280;4077;43.702;24.896;2022-12-24T15:28:55;99313.00;;;8.09;100.00